sensor_id;sensor_type;location;lat;lon;timestamp;pressure;altitude;pressure_sealevel;temperature;humidity
76229;BME280;65021;53.174;18.160;2023-03-20T00:03:43;101096.27;;;5.67;71.40
76229;BME280;65021;53.174;18.160;2023-03-20T00:06:21;101096.41;;;5.73;71.24
76229;BME280;65021;53.174;18.160;2023-03-20T00:08:51;101094.56;;;5.80;71.57
76229;BME280;65021;53.174;18.160;2023-03-20T00:11:36;101090.23;;;5.85;71.28
76229;BME280;65021;53.174;18.160;2023-03-20T00:14:09;101089.50;;;5.90;71.55
76229;BME280;65021;53.174;18.160;2023-03-20T00:16:38;101084.75;;;5.96;71.31
76229;BME280;65021;53.174;18.160;2023-03-20T00:19:09;101080.73;;;5.98;71.53
76229;BME280;65021;53.174;18.160;2023-03-20T00:21:39;101084.17;;;5.99;71.60
76229;BME280;65021;53.174;18.160;2023-03-20T00:24:06;101078.57;;;5.99;71.74
76229;BME280;65021;53.174;18.160;2023-03-20T00:26:34;101073.97;;;6.01;71.55
76229;BME280;65021;53.174;18.160;2023-03-20T00:29:02;101073.09;;;6.03;71.49
76229;BME280;65021;53.174;18.160;2023-03-20T00:31:32;101066.43;;;6.05;71.62
76229;BME280;65021;53.174;18.160;2023-03-20T00:34:02;101067.41;;;6.04;71.78
76229;BME280;65021;53.174;18.160;2023-03-20T00:36:29;101065.80;;;6.05;71.73
76229;BME280;65021;53.174;18.160;2023-03-20T00:38:55;101062.36;;;6.07;71.58
76229;BME280;65021;53.174;18.160;2023-03-20T00:46:54;101050.44;;;6.18;71.43
76229;BME280;65021;53.174;18.160;2023-03-20T00:49:27;101050.84;;;6.21;71.34
76229;BME280;65021;53.174;18.160;2023-03-20T00:51:54;101046.34;;;6.26;71.52
76229;BME280;65021;53.174;18.160;2023-03-20T00:54:21;101049.14;;;6.31;71.36
76229;BME280;65021;53.174;18.160;2023-03-20T00:56:51;101046.16;;;6.37;71.36
76229;BME280;65021;53.174;18.160;2023-03-20T00:59:22;101046.30;;;6.44;71.30
76229;BME280;65021;53.174;18.160;2023-03-20T01:01:50;101042.48;;;6.48;71.25
76229;BME280;65021;53.174;18.160;2023-03-20T01:04:19;101042.19;;;6.47;71.37
76229;BME280;65021;53.174;18.160;2023-03-20T01:06:46;101039.76;;;6.45;71.14
76229;BME280;65021;53.174;18.160;2023-03-20T01:09:13;101037.59;;;6.41;71.44
76229;BME280;65021;53.174;18.160;2023-03-20T01:11:39;101036.10;;;6.35;71.38
76229;BME280;65021;53.174;18.160;2023-03-20T01:14:12;101038.02;;;6.29;71.70
76229;BME280;65021;53.174;18.160;2023-03-20T01:16:40;101040.34;;;6.24;71.93
76229;BME280;65021;53.174;18.160;2023-03-20T01:19:12;101040.13;;;6.19;71.82
76229;BME280;65021;53.174;18.160;2023-03-20T01:21:40;101036.60;;;6.17;71.77
76229;BME280;65021;53.174;18.160;2023-03-20T01:24:07;101036.70;;;6.16;71.80
76229;BME280;65021;53.174;18.160;2023-03-20T01:26:39;101032.48;;;6.17;71.87
76229;BME280;65021;53.174;18.160;2023-03-20T01:31:45;101031.30;;;6.12;72.14
76229;BME280;65021;53.174;18.160;2023-03-20T01:34:11;101035.41;;;6.08;72.08
76229;BME280;65021;53.174;18.160;2023-03-20T01:36:38;101036.81;;;6.05;71.99
76229;BME280;65021;53.174;18.160;2023-03-20T01:39:05;101031.76;;;6.04;71.99
76229;BME280;65021;53.174;18.160;2023-03-20T01:41:32;101029.29;;;6.06;72.06
76229;BME280;65021;53.174;18.160;2023-03-20T01:44:12;101027.39;;;6.08;71.88
76229;BME280;65021;53.174;18.160;2023-03-20T01:46:42;101026.23;;;6.04;71.88
76229;BME280;65021;53.174;18.160;2023-03-20T01:51:45;101025.30;;;5.98;72.29
76229;BME280;65021;53.174;18.160;2023-03-20T01:59:28;101023.16;;;5.96;72.54
76229;BME280;65021;53.174;18.160;2023-03-20T02:01:56;101022.61;;;5.97;72.51
76229;BME280;65021;53.174;18.160;2023-03-20T02:04:28;101021.05;;;5.99;72.40
76229;BME280;65021;53.174;18.160;2023-03-20T02:06:56;101021.05;;;6.03;72.45
76229;BME280;65021;53.174;18.160;2023-03-20T02:09:22;101018.26;;;6.06;72.53
76229;BME280;65021;53.174;18.160;2023-03-20T02:11:49;101013.64;;;6.09;72.43
76229;BME280;65021;53.174;18.160;2023-03-20T02:14:17;101016.45;;;6.12;72.58
76229;BME280;65021;53.174;18.160;2023-03-20T02:16:43;101015.21;;;6.16;72.67
76229;BME280;65021;53.174;18.160;2023-03-20T02:19:22;101013.55;;;6.17;72.59
76229;BME280;65021;53.174;18.160;2023-03-20T02:36:16;101002.29;;;6.23;72.41
76229;BME280;65021;53.174;18.160;2023-03-20T02:44:20;101004.92;;;6.28;72.68
76229;BME280;65021;53.174;18.160;2023-03-20T02:47:08;101009.78;;;6.31;72.74
76229;BME280;65021;53.174;18.160;2023-03-20T02:52:17;101009.45;;;6.34;72.53
76229;BME280;65021;53.174;18.160;2023-03-20T02:54:55;101005.70;;;6.37;72.69
76229;BME280;65021;53.174;18.160;2023-03-20T03:00:14;100998.98;;;6.38;72.69
76229;BME280;65021;53.174;18.160;2023-03-20T03:03:03;100998.35;;;6.32;72.62
76229;BME280;65021;53.174;18.160;2023-03-20T03:05:37;101000.09;;;6.29;72.75
76229;BME280;65021;53.174;18.160;2023-03-20T03:08:07;100998.35;;;6.28;72.65
76229;BME280;65021;53.174;18.160;2023-03-20T03:10:46;100996.83;;;6.30;72.61
76229;BME280;65021;53.174;18.160;2023-03-20T03:13:18;100999.50;;;6.32;72.51
76229;BME280;65021;53.174;18.160;2023-03-20T03:15:50;100999.16;;;6.32;72.59
76229;BME280;65021;53.174;18.160;2023-03-20T03:18:20;100996.52;;;6.33;72.52
76229;BME280;65021;53.174;18.160;2023-03-20T03:20:52;100995.63;;;6.37;72.45
76229;BME280;65021;53.174;18.160;2023-03-20T03:23:31;100992.65;;;6.38;72.39
76229;BME280;65021;53.174;18.160;2023-03-20T03:25:59;100994.48;;;6.40;72.32
76229;BME280;65021;53.174;18.160;2023-03-20T03:28:39;100996.44;;;6.43;72.36
76229;BME280;65021;53.174;18.160;2023-03-20T03:31:10;100996.35;;;6.49;72.56
76229;BME280;65021;53.174;18.160;2023-03-20T03:33:40;100992.22;;;6.56;72.55
76229;BME280;65021;53.174;18.160;2023-03-20T03:36:27;100990.92;;;6.63;72.33
76229;BME280;65021;53.174;18.160;2023-03-20T03:41:52;100986.31;;;6.77;72.38
76229;BME280;65021;53.174;18.160;2023-03-20T03:44:25;100982.30;;;6.79;72.29
76229;BME280;65021;53.174;18.160;2023-03-20T03:47:01;100985.78;;;6.80;72.35
76229;BME280;65021;53.174;18.160;2023-03-20T03:49:34;100981.96;;;6.81;72.47
76229;BME280;65021;53.174;18.160;2023-03-20T03:52:05;100982.52;;;6.79;72.32
76229;BME280;65021;53.174;18.160;2023-03-20T03:54:45;100976.27;;;6.68;72.29
76229;BME280;65021;53.174;18.160;2023-03-20T03:57:16;100974.23;;;6.54;72.39
76229;BME280;65021;53.174;18.160;2023-03-20T03:59:48;100981.10;;;6.40;72.52
76229;BME280;65021;53.174;18.160;2023-03-20T04:02:17;100979.23;;;6.29;72.66
76229;BME280;65021;53.174;18.160;2023-03-20T04:04:48;100977.51;;;6.22;72.75
76229;BME280;65021;53.174;18.160;2023-03-20T04:07:15;100984.05;;;6.14;72.78
76229;BME280;65021;53.174;18.160;2023-03-20T04:09:42;100979.88;;;6.04;72.76
76229;BME280;65021;53.174;18.160;2023-03-20T04:12:32;100981.45;;;5.92;72.79
76229;BME280;65021;53.174;18.160;2023-03-20T04:14:59;100976.26;;;5.86;72.68
76229;BME280;65021;53.174;18.160;2023-03-20T04:17:26;100977.54;;;5.82;72.78
76229;BME280;65021;53.174;18.160;2023-03-20T04:19:53;100979.02;;;5.78;72.80
76229;BME280;65021;53.174;18.160;2023-03-20T04:22:19;100976.77;;;5.76;73.01
76229;BME280;65021;53.174;18.160;2023-03-20T04:24:46;100979.48;;;5.77;73.18
76229;BME280;65021;53.174;18.160;2023-03-20T04:27:12;100979.52;;;5.78;73.06
76229;BME280;65021;53.174;18.160;2023-03-20T04:29:39;100976.02;;;5.80;73.20
76229;BME280;65021;53.174;18.160;2023-03-20T04:32:06;100977.70;;;5.85;73.19
76229;BME280;65021;53.174;18.160;2023-03-20T04:34:33;100976.98;;;5.90;73.08
76229;BME280;65021;53.174;18.160;2023-03-20T04:36:59;100975.75;;;5.92;73.27
76229;BME280;65021;53.174;18.160;2023-03-20T04:39:30;100976.53;;;5.95;73.42
76229;BME280;65021;53.174;18.160;2023-03-20T04:41:57;100974.83;;;5.95;73.46
76229;BME280;65021;53.174;18.160;2023-03-20T04:44:23;100973.00;;;5.94;73.61
76229;BME280;65021;53.174;18.160;2023-03-20T04:46:50;100977.61;;;5.92;73.59
76229;BME280;65021;53.174;18.160;2023-03-20T04:49:16;100976.05;;;5.88;73.79
76229;BME280;65021;53.174;18.160;2023-03-20T04:51:43;100978.50;;;5.84;73.84
76229;BME280;65021;53.174;18.160;2023-03-20T04:54:09;100976.17;;;5.82;73.83
76229;BME280;65021;53.174;18.160;2023-03-20T04:56:36;100981.11;;;5.81;73.77
76229;BME280;65021;53.174;18.160;2023-03-20T04:59:03;100982.33;;;5.79;73.81
76229;BME280;65021;53.174;18.160;2023-03-20T05:01:29;100983.34;;;5.79;73.69
76229;BME280;65021;53.174;18.160;2023-03-20T05:03:56;100983.21;;;5.77;73.59
76229;BME280;65021;53.174;18.160;2023-03-20T05:06:27;100982.20;;;5.74;73.61
76229;BME280;65021;53.174;18.160;2023-03-20T05:08:53;100984.48;;;5.72;73.84
76229;BME280;65021;53.174;18.160;2023-03-20T05:11:20;100985.20;;;5.70;73.99
76229;BME280;65021;53.174;18.160;2023-03-20T05:13:47;100989.02;;;5.73;74.09
76229;BME280;65021;53.174;18.160;2023-03-20T05:16:13;100987.25;;;5.80;73.99
76229;BME280;65021;53.174;18.160;2023-03-20T05:18:40;100986.10;;;5.89;73.91
76229;BME280;65021;53.174;18.160;2023-03-20T05:21:07;100989.72;;;5.98;74.01
76229;BME280;65021;53.174;18.160;2023-03-20T05:23:34;100988.63;;;6.06;74.13
76229;BME280;65021;53.174;18.160;2023-03-20T05:26:01;100992.45;;;6.15;74.31
76229;BME280;65021;53.174;18.160;2023-03-20T05:28:28;100987.44;;;6.22;74.16
76229;BME280;65021;53.174;18.160;2023-03-20T05:30:55;100992.15;;;6.29;74.13
76229;BME280;65021;53.174;18.160;2023-03-20T05:33:22;100992.91;;;6.38;74.16
76229;BME280;65021;53.174;18.160;2023-03-20T05:35:48;100993.23;;;6.47;74.22
76229;BME280;65021;53.174;18.160;2023-03-20T05:38:15;100984.89;;;6.57;74.13
76229;BME280;65021;53.174;18.160;2023-03-20T05:40:42;100984.51;;;6.64;74.18
76229;BME280;65021;53.174;18.160;2023-03-20T05:43:09;100986.80;;;6.66;74.34
76229;BME280;65021;53.174;18.160;2023-03-20T05:45:35;100993.17;;;6.67;74.56
76229;BME280;65021;53.174;18.160;2023-03-20T05:48:02;101002.90;;;6.69;74.55
76229;BME280;65021;53.174;18.160;2023-03-20T05:50:29;101005.54;;;6.67;74.54
76229;BME280;65021;53.174;18.160;2023-03-20T05:52:55;101012.04;;;6.66;75.07
76229;BME280;65021;53.174;18.160;2023-03-20T05:55:22;101014.34;;;6.65;75.05
76229;BME280;65021;53.174;18.160;2023-03-20T05:57:48;101003.41;;;6.68;75.13
76229;BME280;65021;53.174;18.160;2023-03-20T06:00:16;101000.52;;;6.73;74.96
76229;BME280;65021;53.174;18.160;2023-03-20T06:02:42;100995.15;;;6.77;75.54
76229;BME280;65021;53.174;18.160;2023-03-20T06:05:09;100990.13;;;6.78;75.52
76229;BME280;65021;53.174;18.160;2023-03-20T06:07:36;100993.74;;;6.78;75.99
76229;BME280;65021;53.174;18.160;2023-03-20T06:10:02;100994.50;;;6.79;78.26
76229;BME280;65021;53.174;18.160;2023-03-20T06:12:29;100999.52;;;6.81;78.84
76229;BME280;65021;53.174;18.160;2023-03-20T06:14:55;101003.20;;;6.88;77.53
76229;BME280;65021;53.174;18.160;2023-03-20T06:17:22;101001.25;;;7.00;77.47
76229;BME280;65021;53.174;18.160;2023-03-20T06:19:48;101007.50;;;7.12;76.98
76229;BME280;65021;53.174;18.160;2023-03-20T06:22:15;101002.70;;;7.23;76.92
76229;BME280;65021;53.174;18.160;2023-03-20T06:24:42;101006.48;;;7.34;76.74
76229;BME280;65021;53.174;18.160;2023-03-20T06:27:08;101002.73;;;7.46;76.50
76229;BME280;65021;53.174;18.160;2023-03-20T06:29:35;101003.21;;;7.57;76.91
76229;BME280;65021;53.174;18.160;2023-03-20T06:32:02;101004.59;;;7.63;78.90
76229;BME280;65021;53.174;18.160;2023-03-20T06:34:28;101005.02;;;7.64;79.08
76229;BME280;65021;53.174;18.160;2023-03-20T06:36:55;101008.67;;;7.64;79.61
76229;BME280;65021;53.174;18.160;2023-03-20T06:39:22;101011.13;;;7.68;80.26
76229;BME280;65021;53.174;18.160;2023-03-20T06:41:49;101018.38;;;7.72;80.70
76229;BME280;65021;53.174;18.160;2023-03-20T06:44:15;101019.23;;;7.78;81.66
76229;BME280;65021;53.174;18.160;2023-03-20T06:46:42;101017.81;;;7.87;79.98
76229;BME280;65021;53.174;18.160;2023-03-20T06:49:08;101020.61;;;8.01;79.72
76229;BME280;65021;53.174;18.160;2023-03-20T06:51:35;101017.09;;;8.16;78.82
76229;BME280;65021;53.174;18.160;2023-03-20T06:54:02;101018.79;;;8.32;79.59
76229;BME280;65021;53.174;18.160;2023-03-20T06:56:29;101017.18;;;8.45;79.59
76229;BME280;65021;53.174;18.160;2023-03-20T06:58:56;101020.14;;;8.59;79.14
76229;BME280;65021;53.174;18.160;2023-03-20T07:01:23;101021.70;;;8.75;78.47
76229;BME280;65021;53.174;18.160;2023-03-20T07:03:49;101023.23;;;8.90;78.59
76229;BME280;65021;53.174;18.160;2023-03-20T07:06:16;101021.55;;;9.04;78.98
76229;BME280;65021;53.174;18.160;2023-03-20T07:08:44;101017.98;;;9.17;78.82
76229;BME280;65021;53.174;18.160;2023-03-20T07:11:10;101023.65;;;9.32;78.45
76229;BME280;65021;53.174;18.160;2023-03-20T07:13:37;101022.36;;;9.44;78.46
76229;BME280;65021;53.174;18.160;2023-03-20T07:16:04;101024.81;;;9.52;78.76
76229;BME280;65021;53.174;18.160;2023-03-20T07:18:31;101027.55;;;9.54;79.29
76229;BME280;65021;53.174;18.160;2023-03-20T07:21:00;101026.77;;;9.50;79.60
76229;BME280;65021;53.174;18.160;2023-03-20T07:23:28;101030.39;;;9.51;78.98
76229;BME280;65021;53.174;18.160;2023-03-20T07:25:56;101033.16;;;9.51;78.69
76229;BME280;65021;53.174;18.160;2023-03-20T07:28:23;101033.77;;;9.50;78.46
76229;BME280;65021;53.174;18.160;2023-03-20T07:30:50;101034.68;;;9.52;78.41
76229;BME280;65021;53.174;18.160;2023-03-20T07:33:16;101036.90;;;9.52;78.67
76229;BME280;65021;53.174;18.160;2023-03-20T07:35:43;101037.61;;;9.51;78.67
76229;BME280;65021;53.174;18.160;2023-03-20T07:38:09;101043.11;;;9.53;78.59
76229;BME280;65021;53.174;18.160;2023-03-20T07:40:36;101040.69;;;9.52;78.88
76229;BME280;65021;53.174;18.160;2023-03-20T07:43:03;101047.35;;;9.49;78.70
76229;BME280;65021;53.174;18.160;2023-03-20T07:45:30;101044.21;;;9.44;78.69
76229;BME280;65021;53.174;18.160;2023-03-20T07:47:57;101041.46;;;9.38;78.98
76229;BME280;65021;53.174;18.160;2023-03-20T07:50:24;101038.05;;;9.31;78.74
76229;BME280;65021;53.174;18.160;2023-03-20T07:52:50;101039.21;;;9.27;78.86
76229;BME280;65021;53.174;18.160;2023-03-20T07:55:17;101039.05;;;9.22;78.56
76229;BME280;65021;53.174;18.160;2023-03-20T07:57:44;101039.52;;;9.17;78.75
76229;BME280;65021;53.174;18.160;2023-03-20T08:00:11;101038.65;;;9.12;79.00
76229;BME280;65021;53.174;18.160;2023-03-20T08:02:38;101036.42;;;9.10;78.94
76229;BME280;65021;53.174;18.160;2023-03-20T08:05:05;101038.52;;;9.10;78.71
76229;BME280;65021;53.174;18.160;2023-03-20T08:07:31;101040.65;;;9.09;78.80
76229;BME280;65021;53.174;18.160;2023-03-20T08:09:58;101038.23;;;9.09;78.92
76229;BME280;65021;53.174;18.160;2023-03-20T08:12:25;101042.27;;;9.09;78.92
76229;BME280;65021;53.174;18.160;2023-03-20T08:14:51;101036.77;;;9.09;78.85
76229;BME280;65021;53.174;18.160;2023-03-20T08:17:18;101032.63;;;9.13;78.82
76229;BME280;65021;53.174;18.160;2023-03-20T08:19:44;101034.05;;;9.19;78.71
76229;BME280;65021;53.174;18.160;2023-03-20T08:22:11;101031.00;;;9.29;78.66
76229;BME280;65021;53.174;18.160;2023-03-20T08:24:37;101030.85;;;9.40;78.43
76229;BME280;65021;53.174;18.160;2023-03-20T08:27:04;101023.55;;;9.54;78.52
76229;BME280;65021;53.174;18.160;2023-03-20T08:29:31;101019.70;;;9.67;78.63
76229;BME280;65021;53.174;18.160;2023-03-20T08:31:57;101020.61;;;9.81;78.63
76229;BME280;65021;53.174;18.160;2023-03-20T08:34:24;101022.60;;;9.97;78.51
76229;BME280;65021;53.174;18.160;2023-03-20T08:36:51;101020.21;;;10.13;78.32
76229;BME280;65021;53.174;18.160;2023-03-20T08:39:18;101022.09;;;10.24;78.38
76229;BME280;65021;53.174;18.160;2023-03-20T08:41:44;101026.14;;;10.32;78.23
76229;BME280;65021;53.174;18.160;2023-03-20T08:44:12;101026.66;;;10.41;78.11
76229;BME280;65021;53.174;18.160;2023-03-20T08:46:39;101026.23;;;10.53;78.13
76229;BME280;65021;53.174;18.160;2023-03-20T08:49:05;101027.84;;;10.64;78.10
76229;BME280;65021;53.174;18.160;2023-03-20T08:51:32;101027.88;;;10.77;77.86
76229;BME280;65021;53.174;18.160;2023-03-20T08:53:59;101024.96;;;11.02;77.93
76229;BME280;65021;53.174;18.160;2023-03-20T08:56:25;101024.23;;;11.26;77.81
76229;BME280;65021;53.174;18.160;2023-03-20T08:58:52;101024.41;;;11.47;77.70
76229;BME280;65021;53.174;18.160;2023-03-20T09:01:20;101019.14;;;11.70;77.80
76229;BME280;65021;53.174;18.160;2023-03-20T09:03:47;101017.96;;;11.94;77.60
76229;BME280;65021;53.174;18.160;2023-03-20T09:06:14;101012.92;;;12.29;77.49
76229;BME280;65021;53.174;18.160;2023-03-20T09:08:41;101013.27;;;12.76;77.31
76229;BME280;65021;53.174;18.160;2023-03-20T09:11:07;101013.11;;;13.04;76.92
76229;BME280;65021;53.174;18.160;2023-03-20T09:13:34;101007.10;;;13.28;76.74
76229;BME280;65021;53.174;18.160;2023-03-20T09:16:01;101005.56;;;13.41;76.30
76229;BME280;65021;53.174;18.160;2023-03-20T09:18:28;101007.86;;;13.54;76.28
76229;BME280;65021;53.174;18.160;2023-03-20T09:20:55;100997.42;;;13.64;76.03
76229;BME280;65021;53.174;18.160;2023-03-20T09:23:22;100989.96;;;13.71;75.97
76229;BME280;65021;53.174;18.160;2023-03-20T09:25:48;100990.77;;;13.78;76.07
76229;BME280;65021;53.174;18.160;2023-03-20T09:28:15;100992.64;;;13.81;75.60
76229;BME280;65021;53.174;18.160;2023-03-20T09:30:41;100995.72;;;13.81;75.67
76229;BME280;65021;53.174;18.160;2023-03-20T09:33:08;100994.45;;;13.73;75.58
76229;BME280;65021;53.174;18.160;2023-03-20T09:35:35;101001.45;;;13.56;75.37
76229;BME280;65021;53.174;18.160;2023-03-20T09:38:02;100999.98;;;13.38;75.43
76229;BME280;65021;53.174;18.160;2023-03-20T09:46:11;101006.91;;;12.83;75.55
76229;BME280;65021;53.174;18.160;2023-03-20T09:48:48;101008.62;;;12.67;75.64
76229;BME280;65021;53.174;18.160;2023-03-20T09:51:32;101011.61;;;12.59;75.69
76229;BME280;65021;53.174;18.160;2023-03-20T09:56:37;101024.30;;;12.48;75.92
76229;BME280;65021;53.174;18.160;2023-03-20T09:59:04;101028.16;;;12.49;75.96
76229;BME280;65021;53.174;18.160;2023-03-20T10:01:44;101029.66;;;12.56;75.95
76229;BME280;65021;53.174;18.160;2023-03-20T10:04:13;101030.17;;;12.63;75.96
76229;BME280;65021;53.174;18.160;2023-03-20T10:06:40;101027.41;;;12.78;75.87
76229;BME280;65021;53.174;18.160;2023-03-20T10:15:06;101024.19;;;13.31;75.60
76229;BME280;65021;53.174;18.160;2023-03-20T10:17:49;101018.91;;;13.46;75.43
76229;BME280;65021;53.174;18.160;2023-03-20T10:20:32;101014.77;;;13.58;75.34
76229;BME280;65021;53.174;18.160;2023-03-20T10:23:40;101012.52;;;13.61;74.88
76229;BME280;65021;53.174;18.160;2023-03-20T10:26:11;101009.98;;;13.72;74.84
76229;BME280;65021;53.174;18.160;2023-03-20T10:28:54;101010.11;;;13.87;74.87
76229;BME280;65021;53.174;18.160;2023-03-20T10:31:33;101006.73;;;14.08;74.65
76229;BME280;65021;53.174;18.160;2023-03-20T10:42:46;101009.77;;;13.98;73.19
76229;BME280;65021;53.174;18.160;2023-03-20T10:45:28;101006.98;;;14.04;73.39
76229;BME280;65021;53.174;18.160;2023-03-20T10:47:59;101003.27;;;14.17;73.49
76229;BME280;65021;53.174;18.160;2023-03-20T10:50:32;101001.80;;;14.31;73.25
76229;BME280;65021;53.174;18.160;2023-03-20T10:53:01;101002.80;;;14.34;71.95
76229;BME280;65021;53.174;18.160;2023-03-20T10:55:31;101001.35;;;14.27;71.84
76229;BME280;65021;53.174;18.160;2023-03-20T10:58:09;101000.09;;;14.33;72.27
76229;BME280;65021;53.174;18.160;2023-03-20T11:00:39;100997.88;;;14.40;72.51
76229;BME280;65021;53.174;18.160;2023-03-20T11:03:06;100994.24;;;14.53;72.33
76229;BME280;65021;53.174;18.160;2023-03-20T11:05:42;100987.29;;;14.64;71.89
76229;BME280;65021;53.174;18.160;2023-03-20T11:08:13;100988.20;;;14.55;70.81
76229;BME280;65021;53.174;18.160;2023-03-20T11:10:41;100993.69;;;14.47;71.20
76229;BME280;65021;53.174;18.160;2023-03-20T11:15:44;100985.55;;;14.44;71.22
76229;BME280;65021;53.174;18.160;2023-03-20T11:18:12;100988.23;;;14.51;71.07
76229;BME280;65021;53.174;18.160;2023-03-20T11:20:50;100989.82;;;14.60;70.42
76229;BME280;65021;53.174;18.160;2023-03-20T11:23:20;100989.52;;;14.79;70.33
76229;BME280;65021;53.174;18.160;2023-03-20T11:31:04;100979.67;;;15.05;68.66
76229;BME280;65021;53.174;18.160;2023-03-20T11:33:45;100980.38;;;15.08;68.76
76229;BME280;65021;53.174;18.160;2023-03-20T11:36:24;100982.50;;;15.20;68.33
76229;BME280;65021;53.174;18.160;2023-03-20T11:38:52;100978.88;;;15.32;68.48
76229;BME280;65021;53.174;18.160;2023-03-20T11:41:26;100974.65;;;15.36;68.39
76229;BME280;65021;53.174;18.160;2023-03-20T11:43:53;100975.73;;;15.47;68.89
76229;BME280;65021;53.174;18.160;2023-03-20T11:46:22;100972.16;;;15.64;67.48
76229;BME280;65021;53.174;18.160;2023-03-20T11:51:51;100962.34;;;16.01;67.48
76229;BME280;65021;53.174;18.160;2023-03-20T11:54:21;100960.66;;;16.08;66.96
76229;BME280;65021;53.174;18.160;2023-03-20T11:56:57;100956.25;;;16.22;67.06
76229;BME280;65021;53.174;18.160;2023-03-20T11:59:34;100960.09;;;16.31;66.94
76229;BME280;65021;53.174;18.160;2023-03-20T12:02:11;100962.62;;;16.39;66.74
76229;BME280;65021;53.174;18.160;2023-03-20T12:04:43;100959.34;;;16.25;64.36
76229;BME280;65021;53.174;18.160;2023-03-20T12:07:16;100960.78;;;16.07;65.64
76229;BME280;65021;53.174;18.160;2023-03-20T12:10:07;100957.30;;;16.06;65.40
76229;BME280;65021;53.174;18.160;2023-03-20T12:12:53;100951.66;;;16.17;65.89
76229;BME280;65021;53.174;18.160;2023-03-20T12:15:43;100951.10;;;16.31;65.15
76229;BME280;65021;53.174;18.160;2023-03-20T12:18:24;100951.58;;;16.50;64.93
76229;BME280;65021;53.174;18.160;2023-03-20T12:26:05;100947.91;;;16.34;62.20
76229;BME280;65021;53.174;18.160;2023-03-20T12:31:35;100949.92;;;15.83;62.54
76229;BME280;65021;53.174;18.160;2023-03-20T12:34:13;100948.67;;;15.77;62.35
76229;BME280;65021;53.174;18.160;2023-03-20T12:36:47;100941.58;;;15.64;61.62
76229;BME280;65021;53.174;18.160;2023-03-20T12:39:16;100939.55;;;15.69;62.48
76229;BME280;65021;53.174;18.160;2023-03-20T12:52:50;100941.56;;;15.41;64.00
76229;BME280;65021;53.174;18.160;2023-03-20T13:09:13;100923.95;;;15.01;63.89
76229;BME280;65021;53.174;18.160;2023-03-20T13:14:58;100914.30;;;15.44;62.93
76229;BME280;65021;53.174;18.160;2023-03-20T13:17:38;100913.83;;;15.49;62.40
76229;BME280;65021;53.174;18.160;2023-03-20T13:20:23;100911.22;;;15.56;62.78
76229;BME280;65021;53.174;18.160;2023-03-20T13:28:56;100904.83;;;15.78;62.62
76229;BME280;65021;53.174;18.160;2023-03-20T13:31:29;100902.92;;;15.84;61.97
76229;BME280;65021;53.174;18.160;2023-03-20T13:42:19;100890.86;;;15.75;62.25
76229;BME280;65021;53.174;18.160;2023-03-20T13:44:48;100885.00;;;15.84;62.47
76229;BME280;65021;53.174;18.160;2023-03-20T13:47:21;100884.76;;;15.74;60.93
76229;BME280;65021;53.174;18.160;2023-03-20T13:52:54;100884.52;;;15.67;61.79
76229;BME280;65021;53.174;18.160;2023-03-20T13:55:47;100887.40;;;15.57;61.11
76229;BME280;65021;53.174;18.160;2023-03-20T14:01:20;100881.80;;;15.16;61.38
76229;BME280;65021;53.174;18.160;2023-03-20T14:03:50;100879.04;;;15.00;61.78
76229;BME280;65021;53.174;18.160;2023-03-20T14:08:58;100874.06;;;14.88;61.47
76229;BME280;65021;53.174;18.160;2023-03-20T14:11:35;100873.84;;;14.78;61.35
76229;BME280;65021;53.174;18.160;2023-03-20T14:14:11;100866.75;;;14.63;61.29
76229;BME280;65021;53.174;18.160;2023-03-20T14:16:39;100866.12;;;14.52;61.38
76229;BME280;65021;53.174;18.160;2023-03-20T14:19:14;100864.21;;;14.43;61.34
76229;BME280;65021;53.174;18.160;2023-03-20T14:21:51;100863.73;;;14.38;61.72
76229;BME280;65021;53.174;18.160;2023-03-20T14:24:19;100864.14;;;14.40;61.82
76229;BME280;65021;53.174;18.160;2023-03-20T14:26:49;100866.10;;;14.47;61.80
76229;BME280;65021;53.174;18.160;2023-03-20T14:29:29;100861.27;;;14.55;61.62
76229;BME280;65021;53.174;18.160;2023-03-20T14:34:57;100857.67;;;14.71;61.87
76229;BME280;65021;53.174;18.160;2023-03-20T14:39:59;100861.42;;;14.81;61.67
76229;BME280;65021;53.174;18.160;2023-03-20T14:55:57;100872.23;;;14.25;61.46
76229;BME280;65021;53.174;18.160;2023-03-20T15:00:59;100880.16;;;13.93;61.92
76229;BME280;65021;53.174;18.160;2023-03-20T15:03:29;100878.05;;;13.88;62.78
76229;BME280;65021;53.174;18.160;2023-03-20T15:05:58;100886.05;;;13.88;63.09
76229;BME280;65021;53.174;18.160;2023-03-20T15:08:29;100891.70;;;13.85;63.76
76229;BME280;65021;53.174;18.160;2023-03-20T15:10:58;100888.63;;;13.77;64.68
76229;BME280;65021;53.174;18.160;2023-03-20T15:13:29;100893.38;;;13.67;65.12
76229;BME280;65021;53.174;18.160;2023-03-20T15:16:05;100899.98;;;13.58;65.61
76229;BME280;65021;53.174;18.160;2023-03-20T15:18:44;100894.45;;;13.58;65.40
76229;BME280;65021;53.174;18.160;2023-03-20T15:21:32;100892.95;;;13.44;65.73
76229;BME280;65021;53.174;18.160;2023-03-20T15:23:59;100896.53;;;13.35;65.70
76229;BME280;65021;53.174;18.160;2023-03-20T15:26:28;100901.06;;;13.35;65.68
76229;BME280;65021;53.174;18.160;2023-03-20T15:29:12;100902.99;;;13.28;65.85
76229;BME280;65021;53.174;18.160;2023-03-20T15:31:41;100908.15;;;13.22;65.81
76229;BME280;65021;53.174;18.160;2023-03-20T15:34:14;100908.01;;;13.19;65.80
76229;BME280;65021;53.174;18.160;2023-03-20T15:36:43;100914.20;;;13.11;65.98
76229;BME280;65021;53.174;18.160;2023-03-20T15:39:19;100917.47;;;12.98;66.03
76229;BME280;65021;53.174;18.160;2023-03-20T15:41:53;100917.39;;;12.81;66.23